sensor_id;sensor_type;location;lat;lon;timestamp;P1;durP1;ratioP1;P2;durP2;ratioP2
52468;SDS011;38381;53.688;10.776;2022-08-03T00:03:04;2.38;;;2.17;;
52468;SDS011;38381;53.688;10.776;2022-08-03T00:08:04;3.72;;;2.10;;
52468;SDS011;38381;53.688;10.776;2022-08-03T00:13:05;5.25;;;2.85;;
52468;SDS011;38381;53.688;10.776;2022-08-03T00:18:05;5.22;;;2.38;;
52468;SDS011;38381;53.688;10.776;2022-08-03T00:23:05;4.18;;;2.80;;
52468;SDS011;38381;53.688;10.776;2022-08-03T00:28:06;3.95;;;2.33;;
52468;SDS011;38381;53.688;10.776;2022-08-03T00:33:06;2.55;;;2.17;;
52468;SDS011;38381;53.688;10.776;2022-08-03T00:38:09;6.07;;;2.78;;
52468;SDS011;38381;53.688;10.776;2022-08-03T00:43:09;3.00;;;2.40;;
52468;SDS011;38381;53.688;10.776;2022-08-03T00:48:11;2.88;;;2.00;;
52468;SDS011;38381;53.688;10.776;2022-08-03T00:53:11;5.38;;;2.53;;
52468;SDS011;38381;53.688;10.776;2022-08-03T00:58:12;4.93;;;2.92;;
52468;SDS011;38381;53.688;10.776;2022-08-03T01:03:12;3.30;;;2.53;;
52468;SDS011;38381;53.688;10.776;2022-08-03T01:13:47;3.03;;;2.15;;
52468;SDS011;38381;53.688;10.776;2022-08-03T01:30:03;3.38;;;2.70;;
52468;SDS011;38381;53.688;10.776;2022-08-03T01:35:08;6.20;;;3.00;;
52468;SDS011;38381;53.688;10.776;2022-08-03T01:40:10;3.38;;;2.72;;
52468;SDS011;38381;53.688;10.776;2022-08-03T01:45:13;5.80;;;2.65;;
52468;SDS011;38381;53.688;10.776;2022-08-03T01:50:20;3.55;;;2.50;;
52468;SDS011;38381;53.688;10.776;2022-08-03T01:55:24;3.15;;;2.15;;
52468;SDS011;38381;53.688;10.776;2022-08-03T02:00:28;3.63;;;3.28;;
52468;SDS011;38381;53.688;10.776;2022-08-03T02:05:30;6.93;;;2.92;;
52468;SDS011;38381;53.688;10.776;2022-08-03T02:10:31;3.85;;;3.13;;
52468;SDS011;38381;53.688;10.776;2022-08-03T02:15:34;3.20;;;2.90;;
52468;SDS011;38381;53.688;10.776;2022-08-03T02:20:37;2.78;;;2.38;;
52468;SDS011;38381;53.688;10.776;2022-08-03T02:25:40;3.13;;;2.83;;
52468;SDS011;38381;53.688;10.776;2022-08-03T02:30:44;3.65;;;2.78;;
52468;SDS011;38381;53.688;10.776;2022-08-03T02:40:48;8.52;;;3.75;;
52468;SDS011;38381;53.688;10.776;2022-08-03T02:45:50;3.80;;;3.40;;
52468;SDS011;38381;53.688;10.776;2022-08-03T02:50:53;4.95;;;3.50;;
52468;SDS011;38381;53.688;10.776;2022-08-03T02:55:55;4.15;;;3.33;;
52468;SDS011;38381;53.688;10.776;2022-08-03T03:00:57;4.23;;;3.20;;
52468;SDS011;38381;53.688;10.776;2022-08-03T03:05:58;5.53;;;3.75;;
52468;SDS011;38381;53.688;10.776;2022-08-03T03:11:00;3.25;;;2.95;;
52468;SDS011;38381;53.688;10.776;2022-08-03T03:16:01;6.22;;;3.53;;
52468;SDS011;38381;53.688;10.776;2022-08-03T03:21:03;3.83;;;3.47;;
52468;SDS011;38381;53.688;10.776;2022-08-03T03:26:07;4.32;;;3.15;;
52468;SDS011;38381;53.688;10.776;2022-08-03T03:31:08;5.13;;;3.30;;
52468;SDS011;38381;53.688;10.776;2022-08-03T03:36:09;7.28;;;3.45;;
52468;SDS011;38381;53.688;10.776;2022-08-03T03:41:09;3.88;;;3.45;;
52468;SDS011;38381;53.688;10.776;2022-08-03T03:46:11;4.00;;;3.30;;
52468;SDS011;38381;53.688;10.776;2022-08-03T03:51:12;4.30;;;3.90;;
52468;SDS011;38381;53.688;10.776;2022-08-03T03:56:12;4.45;;;4.05;;
52468;SDS011;38381;53.688;10.776;2022-08-03T04:01:12;4.10;;;3.70;;
52468;SDS011;38381;53.688;10.776;2022-08-03T04:06:13;5.07;;;4.57;;
52468;SDS011;38381;53.688;10.776;2022-08-03T04:16:39;4.45;;;4.05;;
52468;SDS011;38381;53.688;10.776;2022-08-03T04:21:46;6.57;;;4.05;;
52468;SDS011;38381;53.688;10.776;2022-08-03T04:26:50;4.97;;;3.63;;
52468;SDS011;38381;53.688;10.776;2022-08-03T04:31:52;7.53;;;4.37;;
52468;SDS011;38381;53.688;10.776;2022-08-03T04:36:57;4.57;;;3.35;;
52468;SDS011;38381;53.688;10.776;2022-08-03T04:42:00;4.15;;;3.75;;
52468;SDS011;38381;53.688;10.776;2022-08-03T04:47:04;5.78;;;3.70;;
52468;SDS011;38381;53.688;10.776;2022-08-03T04:52:04;4.57;;;4.17;;
52468;SDS011;38381;53.688;10.776;2022-08-03T05:02:07;4.97;;;3.90;;
52468;SDS011;38381;53.688;10.776;2022-08-03T05:07:07;4.27;;;3.30;;
52468;SDS011;38381;53.688;10.776;2022-08-03T05:12:07;6.10;;;4.15;;
52468;SDS011;38381;53.688;10.776;2022-08-03T05:17:08;5.15;;;3.97;;
52468;SDS011;38381;53.688;10.776;2022-08-03T05:22:08;7.50;;;3.90;;
52468;SDS011;38381;53.688;10.776;2022-08-03T05:27:08;7.32;;;4.38;;
52468;SDS011;38381;53.688;10.776;2022-08-03T05:32:09;5.03;;;4.25;;
52468;SDS011;38381;53.688;10.776;2022-08-03T05:37:10;4.43;;;4.03;;
52468;SDS011;38381;53.688;10.776;2022-08-03T05:42:10;4.78;;;3.78;;
52468;SDS011;38381;53.688;10.776;2022-08-03T05:47:10;4.40;;;3.88;;
52468;SDS011;38381;53.688;10.776;2022-08-03T05:52:11;4.88;;;4.38;;
52468;SDS011;38381;53.688;10.776;2022-08-03T05:57:11;5.67;;;5.17;;
52468;SDS011;38381;53.688;10.776;2022-08-03T06:02:11;8.02;;;4.85;;
52468;SDS011;38381;53.688;10.776;2022-08-03T06:07:12;5.57;;;3.60;;
52468;SDS011;38381;53.688;10.776;2022-08-03T06:12:12;5.38;;;4.07;;
52468;SDS011;38381;53.688;10.776;2022-08-03T06:17:12;4.30;;;3.90;;
52468;SDS011;38381;53.688;10.776;2022-08-03T06:22:13;4.35;;;3.78;;
52468;SDS011;38381;53.688;10.776;2022-08-03T06:27:13;5.90;;;3.88;;
52468;SDS011;38381;53.688;10.776;2022-08-03T06:32:13;4.10;;;3.70;;
52468;SDS011;38381;53.688;10.776;2022-08-03T06:37:14;5.33;;;4.00;;
52468;SDS011;38381;53.688;10.776;2022-08-03T06:42:14;6.25;;;4.22;;
52468;SDS011;38381;53.688;10.776;2022-08-03T06:47:14;4.17;;;3.77;;
52468;SDS011;38381;53.688;10.776;2022-08-03T06:52:14;4.78;;;3.20;;
52468;SDS011;38381;53.688;10.776;2022-08-03T06:57:15;5.80;;;4.47;;
52468;SDS011;38381;53.688;10.776;2022-08-03T07:02:15;5.00;;;3.55;;
52468;SDS011;38381;53.688;10.776;2022-08-03T07:07:18;3.92;;;3.58;;
52468;SDS011;38381;53.688;10.776;2022-08-03T07:12:19;8.00;;;3.60;;
52468;SDS011;38381;53.688;10.776;2022-08-03T07:17:19;3.93;;;3.53;;
52468;SDS011;38381;53.688;10.776;2022-08-03T07:22:20;4.90;;;4.03;;
52468;SDS011;38381;53.688;10.776;2022-08-03T07:27:20;4.20;;;3.45;;
52468;SDS011;38381;53.688;10.776;2022-08-03T07:32:21;4.87;;;3.60;;
52468;SDS011;38381;53.688;10.776;2022-08-03T07:37:22;7.43;;;2.80;;
52468;SDS011;38381;53.688;10.776;2022-08-03T07:42:22;5.87;;;3.17;;
52468;SDS011;38381;53.688;10.776;2022-08-03T07:47:24;2.70;;;2.45;;
52468;SDS011;38381;53.688;10.776;2022-08-03T07:52:27;4.10;;;2.58;;
52468;SDS011;38381;53.688;10.776;2022-08-03T07:57:46;3.55;;;2.42;;
52468;SDS011;38381;53.688;10.776;2022-08-03T08:02:47;2.83;;;2.40;;
52468;SDS011;38381;53.688;10.776;2022-08-03T08:07:47;6.35;;;2.40;;
52468;SDS011;38381;53.688;10.776;2022-08-03T08:12:48;2.80;;;2.40;;
52468;SDS011;38381;53.688;10.776;2022-08-03T08:17:49;3.13;;;2.53;;
52468;SDS011;38381;53.688;10.776;2022-08-03T08:22:54;2.35;;;1.90;;
52468;SDS011;38381;53.688;10.776;2022-08-03T08:27:57;3.75;;;2.15;;
52468;SDS011;38381;53.688;10.776;2022-08-03T08:33:01;2.83;;;2.50;;
52468;SDS011;38381;53.688;10.776;2022-08-03T08:38:01;3.63;;;2.33;;
52468;SDS011;38381;53.688;10.776;2022-08-03T08:43:02;3.92;;;2.45;;
52468;SDS011;38381;53.688;10.776;2022-08-03T08:48:02;4.67;;;2.40;;
52468;SDS011;38381;53.688;10.776;2022-08-03T08:53:06;3.03;;;2.33;;
52468;SDS011;38381;53.688;10.776;2022-08-03T08:58:06;2.45;;;1.90;;
52468;SDS011;38381;53.688;10.776;2022-08-03T09:03:10;4.28;;;2.40;;
52468;SDS011;38381;53.688;10.776;2022-08-03T09:13:11;4.97;;;1.92;;
52468;SDS011;38381;53.688;10.776;2022-08-03T09:18:12;5.67;;;2.10;;
52468;SDS011;38381;53.688;10.776;2022-08-03T09:23:14;2.33;;;1.90;;
52468;SDS011;38381;53.688;10.776;2022-08-03T09:28:16;4.00;;;2.00;;
52468;SDS011;38381;53.688;10.776;2022-08-03T09:33:17;6.28;;;1.95;;
52468;SDS011;38381;53.688;10.776;2022-08-03T09:38:19;3.13;;;1.60;;
52468;SDS011;38381;53.688;10.776;2022-08-03T09:43:23;7.10;;;1.75;;
52468;SDS011;38381;53.688;10.776;2022-08-03T09:48:26;3.05;;;1.80;;
52468;SDS011;38381;53.688;10.776;2022-08-03T09:53:28;4.63;;;2.35;;
52468;SDS011;38381;53.688;10.776;2022-08-03T09:58:29;3.00;;;2.00;;
52468;SDS011;38381;53.688;10.776;2022-08-03T10:03:30;4.07;;;2.00;;
52468;SDS011;38381;53.688;10.776;2022-08-03T10:08:33;5.82;;;2.03;;
52468;SDS011;38381;53.688;10.776;2022-08-03T10:13:34;2.55;;;1.67;;
52468;SDS011;38381;53.688;10.776;2022-08-03T10:18:36;2.30;;;1.80;;
52468;SDS011;38381;53.688;10.776;2022-08-03T10:23:36;5.70;;;2.40;;
52468;SDS011;38381;53.688;10.776;2022-08-03T10:28:40;4.22;;;1.88;;
52468;SDS011;38381;53.688;10.776;2022-08-03T10:33:46;2.92;;;1.88;;
52468;SDS011;38381;53.688;10.776;2022-08-03T10:38:55;3.13;;;1.75;;
52468;SDS011;38381;53.688;10.776;2022-08-03T10:44:07;4.00;;;2.00;;
52468;SDS011;38381;53.688;10.776;2022-08-03T10:49:11;3.10;;;2.05;;
52468;SDS011;38381;53.688;10.776;2022-08-03T11:04:44;7.53;;;2.33;;
52468;SDS011;38381;53.688;10.776;2022-08-03T11:09:46;2.78;;;1.60;;
52468;SDS011;38381;53.688;10.776;2022-08-03T11:14:48;3.70;;;1.63;;
52468;SDS011;38381;53.688;10.776;2022-08-03T11:19:49;5.70;;;1.70;;
52468;SDS011;38381;53.688;10.776;2022-08-03T11:30:22;5.35;;;1.70;;
52468;SDS011;38381;53.688;10.776;2022-08-03T11:35:29;2.78;;;1.60;;
52468;SDS011;38381;53.688;10.776;2022-08-03T11:45:38;2.45;;;1.85;;
52468;SDS011;38381;53.688;10.776;2022-08-03T11:50:55;3.00;;;1.80;;
52468;SDS011;38381;53.688;10.776;2022-08-03T11:55:59;4.78;;;1.70;;
52468;SDS011;38381;53.688;10.776;2022-08-03T12:01:04;2.28;;;1.42;;
52468;SDS011;38381;53.688;10.776;2022-08-03T12:06:08;3.55;;;2.10;;
52468;SDS011;38381;53.688;10.776;2022-08-03T12:11:10;7.25;;;2.03;;
52468;SDS011;38381;53.688;10.776;2022-08-03T12:16:16;5.72;;;1.75;;
52468;SDS011;38381;53.688;10.776;2022-08-03T12:21:18;3.42;;;1.65;;
52468;SDS011;38381;53.688;10.776;2022-08-03T12:26:23;4.72;;;2.30;;
52468;SDS011;38381;53.688;10.776;2022-08-03T12:31:23;2.38;;;1.30;;
52468;SDS011;38381;53.688;10.776;2022-08-03T12:41:28;2.00;;;1.50;;
52468;SDS011;38381;53.688;10.776;2022-08-03T13:02:02;3.90;;;1.80;;
52468;SDS011;38381;53.688;10.776;2022-08-03T13:07:05;2.90;;;1.80;;
52468;SDS011;38381;53.688;10.776;2022-08-03T13:12:08;2.80;;;1.55;;
52468;SDS011;38381;53.688;10.776;2022-08-03T13:17:13;3.58;;;1.75;;
52468;SDS011;38381;53.688;10.776;2022-08-03T13:22:19;4.60;;;2.00;;
52468;SDS011;38381;53.688;10.776;2022-08-03T13:27:21;3.08;;;1.75;;
52468;SDS011;38381;53.688;10.776;2022-08-03T13:37:22;2.97;;;1.77;;
52468;SDS011;38381;53.688;10.776;2022-08-03T13:47:22;5.33;;;1.70;;
52468;SDS011;38381;53.688;10.776;2022-08-03T13:57:23;6.93;;;2.00;;
52468;SDS011;38381;53.688;10.776;2022-08-03T14:02:23;2.05;;;1.60;;
52468;SDS011;38381;53.688;10.776;2022-08-03T14:12:24;4.25;;;1.50;;
52468;SDS011;38381;53.688;10.776;2022-08-03T14:17:24;3.72;;;1.25;;
52468;SDS011;38381;53.688;10.776;2022-08-03T14:22:24;1.77;;;1.58;;
52468;SDS011;38381;53.688;10.776;2022-08-03T14:27:25;8.07;;;2.28;;
52468;SDS011;38381;53.688;10.776;2022-08-03T14:32:25;5.00;;;2.03;;
52468;SDS011;38381;53.688;10.776;2022-08-03T14:37:26;5.55;;;2.05;;
52468;SDS011;38381;53.688;10.776;2022-08-03T14:47:27;1.77;;;1.25;;
52468;SDS011;38381;53.688;10.776;2022-08-03T14:52:27;5.00;;;1.95;;
52468;SDS011;38381;53.688;10.776;2022-08-03T14:57:27;3.13;;;1.55;;
52468;SDS011;38381;53.688;10.776;2022-08-03T15:07:29;3.00;;;1.58;;
52468;SDS011;38381;53.688;10.776;2022-08-03T15:12:29;6.95;;;2.17;;
52468;SDS011;38381;53.688;10.776;2022-08-03T15:17:29;3.55;;;2.10;;
52468;SDS011;38381;53.688;10.776;2022-08-03T15:27:30;3.85;;;1.30;;
52468;SDS011;38381;53.688;10.776;2022-08-03T15:32:33;3.77;;;1.60;;
52468;SDS011;38381;53.688;10.776;2022-08-03T15:37:34;2.85;;;2.00;;
52468;SDS011;38381;53.688;10.776;2022-08-03T15:47:34;3.83;;;1.90;;
52468;SDS011;38381;53.688;10.776;2022-08-03T15:52:34;6.15;;;2.00;;
52468;SDS011;38381;53.688;10.776;2022-08-03T15:57:35;3.35;;;2.00;;
52468;SDS011;38381;53.688;10.776;2022-08-03T16:02:36;4.72;;;1.80;;
52468;SDS011;38381;53.688;10.776;2022-08-03T16:07:37;2.13;;;1.83;;
52468;SDS011;38381;53.688;10.776;2022-08-03T16:12:47;9.15;;;1.45;;
52468;SDS011;38381;53.688;10.776;2022-08-03T16:22:48;5.75;;;1.67;;
52468;SDS011;38381;53.688;10.776;2022-08-03T16:27:49;2.92;;;1.80;;
52468;SDS011;38381;53.688;10.776;2022-08-03T16:32:49;1.77;;;1.53;;
52468;SDS011;38381;53.688;10.776;2022-08-03T16:42:50;3.30;;;1.92;;
52468;SDS011;38381;53.688;10.776;2022-08-03T16:52:50;2.90;;;1.70;;
52468;SDS011;38381;53.688;10.776;2022-08-03T16:57:51;2.10;;;1.58;;
52468;SDS011;38381;53.688;10.776;2022-08-03T17:02:51;4.93;;;2.00;;
52468;SDS011;38381;53.688;10.776;2022-08-03T17:07:54;2.88;;;1.58;;
52468;SDS011;38381;53.688;10.776;2022-08-03T17:18:00;2.50;;;1.80;;
52468;SDS011;38381;53.688;10.776;2022-08-03T17:23:10;2.42;;;1.70;;
52468;SDS011;38381;53.688;10.776;2022-08-03T17:28:34;6.05;;;2.17;;
52468;SDS011;38381;53.688;10.776;2022-08-03T17:33:40;3.97;;;1.50;;
52468;SDS011;38381;53.688;10.776;2022-08-03T17:38:41;4.97;;;1.35;;
52468;SDS011;38381;53.688;10.776;2022-08-03T17:48:44;4.40;;;1.63;;
52468;SDS011;38381;53.688;10.776;2022-08-03T18:04:26;5.55;;;3.45;;
52468;SDS011;38381;53.688;10.776;2022-08-03T18:09:27;3.60;;;1.67;;
52468;SDS011;38381;53.688;10.776;2022-08-03T18:14:31;3.88;;;1.88;;
52468;SDS011;38381;53.688;10.776;2022-08-03T18:19:36;5.20;;;2.05;;
52468;SDS011;38381;53.688;10.776;2022-08-03T18:24:37;1.92;;;1.50;;
52468;SDS011;38381;53.688;10.776;2022-08-03T18:29:38;2.50;;;1.73;;
52468;SDS011;38381;53.688;10.776;2022-08-03T18:34:41;3.67;;;1.83;;
52468;SDS011;38381;53.688;10.776;2022-08-03T18:39:43;3.28;;;1.70;;
52468;SDS011;38381;53.688;10.776;2022-08-03T18:44:45;3.08;;;1.63;;
52468;SDS011;38381;53.688;10.776;2022-08-03T18:55:02;6.88;;;2.90;;
52468;SDS011;38381;53.688;10.776;2022-08-03T19:00:08;4.97;;;1.67;;
52468;SDS011;38381;53.688;10.776;2022-08-03T19:05:17;4.63;;;1.75;;
52468;SDS011;38381;53.688;10.776;2022-08-03T19:10:25;12.05;;;2.47;;
52468;SDS011;38381;53.688;10.776;2022-08-03T19:15:31;2.28;;;1.73;;
52468;SDS011;38381;53.688;10.776;2022-08-03T19:20:32;3.42;;;1.75;;
52468;SDS011;38381;53.688;10.776;2022-08-03T19:25:36;4.40;;;2.53;;
52468;SDS011;38381;53.688;10.776;2022-08-03T19:30:38;2.88;;;1.92;;
52468;SDS011;38381;53.688;10.776;2022-08-03T19:35:46;4.63;;;2.03;;
52468;SDS011;38381;53.688;10.776;2022-08-03T19:40:48;5.13;;;1.92;;
52468;SDS011;38381;53.688;10.776;2022-08-03T19:45:50;2.40;;;2.05;;
52468;SDS011;38381;53.688;10.776;2022-08-03T19:55:53;5.57;;;2.10;;
52468;SDS011;38381;53.688;10.776;2022-08-03T20:00:56;5.82;;;2.13;;
52468;SDS011;38381;53.688;10.776;2022-08-03T20:05:57;4.45;;;1.77;;
52468;SDS011;38381;53.688;10.776;2022-08-03T20:10:58;2.80;;;1.97;;
52468;SDS011;38381;53.688;10.776;2022-08-03T20:15:58;4.13;;;2.30;;
52468;SDS011;38381;53.688;10.776;2022-08-03T20:21:10;4.53;;;2.40;;
52468;SDS011;38381;53.688;10.776;2022-08-03T20:26:13;2.70;;;2.00;;
52468;SDS011;38381;53.688;10.776;2022-08-03T20:31:15;4.00;;;2.53;;
52468;SDS011;38381;53.688;10.776;2022-08-03T20:36:16;2.75;;;2.40;;
52468;SDS011;38381;53.688;10.776;2022-08-03T20:41:17;4.20;;;2.37;;
52468;SDS011;38381;53.688;10.776;2022-08-03T20:46:18;3.33;;;2.57;;
52468;SDS011;38381;53.688;10.776;2022-08-03T20:51:19;4.95;;;2.03;;
52468;SDS011;38381;53.688;10.776;2022-08-03T20:56:19;4.03;;;2.50;;
52468;SDS011;38381;53.688;10.776;2022-08-03T21:01:21;5.90;;;2.90;;
52468;SDS011;38381;53.688;10.776;2022-08-03T21:06:21;7.22;;;2.80;;
52468;SDS011;38381;53.688;10.776;2022-08-03T21:11:23;5.13;;;2.90;;
52468;SDS011;38381;53.688;10.776;2022-08-03T21:16:30;5.75;;;2.20;;
52468;SDS011;38381;53.688;10.776;2022-08-03T21:21:36;3.60;;;2.17;;
52468;SDS011;38381;53.688;10.776;2022-08-03T21:26:37;7.32;;;3.33;;
52468;SDS011;38381;53.688;10.776;2022-08-03T21:31:38;5.53;;;2.90;;
52468;SDS011;38381;53.688;10.776;2022-08-03T21:36:39;9.77;;;2.67;;
52468;SDS011;38381;53.688;10.776;2022-08-03T21:41:40;5.60;;;2.80;;
52468;SDS011;38381;53.688;10.776;2022-08-03T21:46:40;6.30;;;3.20;;
52468;SDS011;38381;53.688;10.776;2022-08-03T21:51:41;6.07;;;3.13;;
52468;SDS011;38381;53.688;10.776;2022-08-03T21:56:42;11.70;;;2.70;;
52468;SDS011;38381;53.688;10.776;2022-08-03T22:01:47;6.30;;;2.22;;
52468;SDS011;38381;53.688;10.776;2022-08-03T22:06:50;7.60;;;2.92;;
52468;SDS011;38381;53.688;10.776;2022-08-03T22:11:51;7.13;;;3.27;;
52468;SDS011;38381;53.688;10.776;2022-08-03T22:16:53;8.00;;;3.33;;
52468;SDS011;38381;53.688;10.776;2022-08-03T22:21:53;6.97;;;2.60;;
52468;SDS011;38381;53.688;10.776;2022-08-03T22:26:54;6.37;;;2.83;;
52468;SDS011;38381;53.688;10.776;2022-08-03T22:32:13;5.90;;;2.20;;
52468;SDS011;38381;53.688;10.776;2022-08-03T22:37:14;3.43;;;2.57;;
52468;SDS011;38381;53.688;10.776;2022-08-03T22:42:15;5.05;;;2.78;;
52468;SDS011;38381;53.688;10.776;2022-08-03T22:47:18;9.68;;;3.05;;
52468;SDS011;38381;53.688;10.776;2022-08-03T22:52:19;3.80;;;2.53;;
52468;SDS011;38381;53.688;10.776;2022-08-03T22:57:20;7.47;;;2.93;;
52468;SDS011;38381;53.688;10.776;2022-08-03T23:02:20;6.93;;;3.00;;
52468;SDS011;38381;53.688;10.776;2022-08-03T23:07:27;3.40;;;2.25;;
52468;SDS011;38381;53.688;10.776;2022-08-03T23:12:33;6.93;;;2.33;;
52468;SDS011;38381;53.688;10.776;2022-08-03T23:17:53;3.33;;;2.22;;
52468;SDS011;38381;53.688;10.776;2022-08-03T23:22:56;6.32;;;2.72;;
52468;SDS011;38381;53.688;10.776;2022-08-03T23:27:57;4.47;;;2.63;;
52468;SDS011;38381;53.688;10.776;2022-08-03T23:33:00;6.43;;;2.45;;
52468;SDS011;38381;53.688;10.776;2022-08-03T23:43:03;3.63;;;2.58;;
52468;SDS011;38381;53.688;10.776;2022-08-03T23:48:04;6.38;;;2.67;;
52468;SDS011;38381;53.688;10.776;2022-08-03T23:53:15;6.97;;;2.97;;
